sensor_id;sensor_type;location;lat;lon;timestamp;P1;durP1;ratioP1;P2;durP2;ratioP2
40176;SDS011;31511;46.176;9.874;2023-07-24T00:00:26;20.98;;;12.57;;
40176;SDS011;31511;46.176;9.874;2023-07-24T00:03:11;18.17;;;12.05;;
40176;SDS011;31511;46.176;9.874;2023-07-24T00:05:58;16.88;;;12.10;;
40176;SDS011;31511;46.176;9.874;2023-07-24T00:08:43;19.65;;;12.88;;
40176;SDS011;31511;46.176;9.874;2023-07-24T00:11:28;19.98;;;12.10;;
40176;SDS011;31511;46.176;9.874;2023-07-24T00:14:12;17.60;;;12.23;;
40176;SDS011;31511;46.176;9.874;2023-07-24T00:16:57;17.60;;;12.05;;
40176;SDS011;31511;46.176;9.874;2023-07-24T00:19:41;19.35;;;11.63;;
40176;SDS011;31511;46.176;9.874;2023-07-24T00:22:26;16.70;;;10.80;;
40176;SDS011;31511;46.176;9.874;2023-07-24T00:25:10;16.63;;;11.88;;
40176;SDS011;31511;46.176;9.874;2023-07-24T00:27:55;17.10;;;12.48;;
40176;SDS011;31511;46.176;9.874;2023-07-24T00:30:39;16.55;;;11.65;;
40176;SDS011;31511;46.176;9.874;2023-07-24T00:33:24;16.33;;;11.75;;
40176;SDS011;31511;46.176;9.874;2023-07-24T00:36:08;18.10;;;11.68;;
40176;SDS011;31511;46.176;9.874;2023-07-24T00:38:53;17.75;;;11.82;;
40176;SDS011;31511;46.176;9.874;2023-07-24T00:41:37;18.52;;;11.07;;
40176;SDS011;31511;46.176;9.874;2023-07-24T00:44:22;15.02;;;10.80;;
40176;SDS011;31511;46.176;9.874;2023-07-24T00:47:06;17.98;;;12.38;;
40176;SDS011;31511;46.176;9.874;2023-07-24T00:49:51;18.73;;;12.20;;
40176;SDS011;31511;46.176;9.874;2023-07-24T00:52:36;16.60;;;11.18;;
40176;SDS011;31511;46.176;9.874;2023-07-24T00:55:21;16.45;;;11.88;;
40176;SDS011;31511;46.176;9.874;2023-07-24T00:58:06;17.58;;;12.07;;
40176;SDS011;31511;46.176;9.874;2023-07-24T01:00:50;15.88;;;12.15;;
40176;SDS011;31511;46.176;9.874;2023-07-24T01:03:35;17.95;;;11.90;;
40176;SDS011;31511;46.176;9.874;2023-07-24T01:06:20;16.52;;;11.73;;
40176;SDS011;31511;46.176;9.874;2023-07-24T01:09:04;16.05;;;11.25;;
40176;SDS011;31511;46.176;9.874;2023-07-24T01:11:56;17.05;;;10.90;;
40176;SDS011;31511;46.176;9.874;2023-07-24T01:14:44;18.55;;;12.25;;
40176;SDS011;31511;46.176;9.874;2023-07-24T01:17:30;15.82;;;12.02;;
40176;SDS011;31511;46.176;9.874;2023-07-24T01:20:16;19.77;;;12.05;;
40176;SDS011;31511;46.176;9.874;2023-07-24T01:25:56;17.77;;;11.38;;
40176;SDS011;31511;46.176;9.874;2023-07-24T01:28:44;16.95;;;12.02;;
40176;SDS011;31511;46.176;9.874;2023-07-24T01:31:29;18.48;;;12.40;;
40176;SDS011;31511;46.176;9.874;2023-07-24T01:34:14;17.83;;;12.02;;
40176;SDS011;31511;46.176;9.874;2023-07-24T01:36:58;21.65;;;12.48;;
40176;SDS011;31511;46.176;9.874;2023-07-24T01:39:43;15.18;;;10.63;;
40176;SDS011;31511;46.176;9.874;2023-07-24T01:42:28;18.50;;;12.43;;
40176;SDS011;31511;46.176;9.874;2023-07-24T01:45:13;19.20;;;12.32;;
40176;SDS011;31511;46.176;9.874;2023-07-24T01:47:58;20.85;;;13.10;;
40176;SDS011;31511;46.176;9.874;2023-07-24T01:50:43;15.07;;;11.30;;
40176;SDS011;31511;46.176;9.874;2023-07-24T01:53:27;19.33;;;12.25;;
40176;SDS011;31511;46.176;9.874;2023-07-24T01:56:12;18.50;;;13.05;;
40176;SDS011;31511;46.176;9.874;2023-07-24T01:58:56;20.80;;;11.90;;
40176;SDS011;31511;46.176;9.874;2023-07-24T02:01:41;16.88;;;12.10;;
40176;SDS011;31511;46.176;9.874;2023-07-24T02:04:25;16.10;;;11.48;;
40176;SDS011;31511;46.176;9.874;2023-07-24T02:07:10;21.05;;;12.43;;
40176;SDS011;31511;46.176;9.874;2023-07-24T02:09:54;17.75;;;12.10;;
40176;SDS011;31511;46.176;9.874;2023-07-24T02:12:39;21.88;;;12.60;;
40176;SDS011;31511;46.176;9.874;2023-07-24T02:15:24;19.00;;;12.60;;
40176;SDS011;31511;46.176;9.874;2023-07-24T02:18:09;20.70;;;12.73;;
40176;SDS011;31511;46.176;9.874;2023-07-24T02:20:54;23.23;;;13.80;;
40176;SDS011;31511;46.176;9.874;2023-07-24T02:23:38;20.33;;;11.60;;
40176;SDS011;31511;46.176;9.874;2023-07-24T02:26:23;17.63;;;12.73;;
40176;SDS011;31511;46.176;9.874;2023-07-24T02:29:07;20.10;;;12.18;;
40176;SDS011;31511;46.176;9.874;2023-07-24T02:31:53;19.90;;;11.82;;
40176;SDS011;31511;46.176;9.874;2023-07-24T02:34:37;18.98;;;13.27;;
40176;SDS011;31511;46.176;9.874;2023-07-24T02:37:22;16.27;;;11.40;;
40176;SDS011;31511;46.176;9.874;2023-07-24T02:40:07;17.42;;;11.35;;
40176;SDS011;31511;46.176;9.874;2023-07-24T02:42:52;20.85;;;12.18;;
40176;SDS011;31511;46.176;9.874;2023-07-24T02:45:37;19.23;;;12.48;;
40176;SDS011;31511;46.176;9.874;2023-07-24T02:48:22;16.63;;;12.18;;
40176;SDS011;31511;46.176;9.874;2023-07-24T02:51:06;17.95;;;12.63;;
40176;SDS011;31511;46.176;9.874;2023-07-24T02:53:52;19.27;;;11.85;;
40176;SDS011;31511;46.176;9.874;2023-07-24T02:56:37;19.02;;;11.85;;
40176;SDS011;31511;46.176;9.874;2023-07-24T02:59:22;16.95;;;12.85;;
40176;SDS011;31511;46.176;9.874;2023-07-24T03:02:07;20.13;;;11.65;;
40176;SDS011;31511;46.176;9.874;2023-07-24T03:04:51;18.70;;;11.80;;
40176;SDS011;31511;46.176;9.874;2023-07-24T03:07:36;16.75;;;12.23;;
40176;SDS011;31511;46.176;9.874;2023-07-24T03:10:21;21.38;;;12.93;;
40176;SDS011;31511;46.176;9.874;2023-07-24T03:13:05;17.83;;;12.38;;
40176;SDS011;31511;46.176;9.874;2023-07-24T03:15:53;16.88;;;12.27;;
40176;SDS011;31511;46.176;9.874;2023-07-24T03:18:38;19.08;;;13.15;;
40176;SDS011;31511;46.176;9.874;2023-07-24T03:21:23;21.10;;;13.43;;
40176;SDS011;31511;46.176;9.874;2023-07-24T03:24:07;18.10;;;12.82;;
40176;SDS011;31511;46.176;9.874;2023-07-24T03:26:52;15.50;;;11.60;;
40176;SDS011;31511;46.176;9.874;2023-07-24T03:29:36;16.02;;;12.07;;
40176;SDS011;31511;46.176;9.874;2023-07-24T03:32:21;18.55;;;13.20;;
40176;SDS011;31511;46.176;9.874;2023-07-24T03:35:06;21.20;;;13.77;;
40176;SDS011;31511;46.176;9.874;2023-07-24T03:37:50;19.02;;;12.63;;
40176;SDS011;31511;46.176;9.874;2023-07-24T03:40:35;18.10;;;12.15;;
40176;SDS011;31511;46.176;9.874;2023-07-24T03:43:19;20.67;;;13.32;;
40176;SDS011;31511;46.176;9.874;2023-07-24T03:46:04;25.55;;;13.23;;
40176;SDS011;31511;46.176;9.874;2023-07-24T03:48:48;18.90;;;13.10;;
40176;SDS011;31511;46.176;9.874;2023-07-24T03:51:34;20.02;;;13.55;;
40176;SDS011;31511;46.176;9.874;2023-07-24T03:54:19;20.42;;;12.90;;
40176;SDS011;31511;46.176;9.874;2023-07-24T03:57:03;17.83;;;12.15;;
40176;SDS011;31511;46.176;9.874;2023-07-24T03:59:48;19.55;;;13.18;;
40176;SDS011;31511;46.176;9.874;2023-07-24T04:02:33;25.95;;;12.45;;
40176;SDS011;31511;46.176;9.874;2023-07-24T04:05:17;18.05;;;13.30;;
40176;SDS011;31511;46.176;9.874;2023-07-24T04:08:02;15.70;;;11.75;;
40176;SDS011;31511;46.176;9.874;2023-07-24T04:10:47;19.08;;;13.48;;
40176;SDS011;31511;46.176;9.874;2023-07-24T04:13:31;18.38;;;13.10;;
40176;SDS011;31511;46.176;9.874;2023-07-24T04:16:16;19.70;;;12.05;;
40176;SDS011;31511;46.176;9.874;2023-07-24T04:19:00;16.30;;;11.98;;
40176;SDS011;31511;46.176;9.874;2023-07-24T04:21:45;21.42;;;12.80;;
40176;SDS011;31511;46.176;9.874;2023-07-24T04:24:29;20.98;;;12.43;;
40176;SDS011;31511;46.176;9.874;2023-07-24T04:27:14;21.52;;;14.55;;
40176;SDS011;31511;46.176;9.874;2023-07-24T04:29:58;21.73;;;13.90;;
40176;SDS011;31511;46.176;9.874;2023-07-24T04:32:43;17.27;;;13.20;;
40176;SDS011;31511;46.176;9.874;2023-07-24T04:35:28;20.88;;;12.43;;
40176;SDS011;31511;46.176;9.874;2023-07-24T04:38:12;15.98;;;12.55;;
40176;SDS011;31511;46.176;9.874;2023-07-24T04:40:57;20.58;;;12.88;;
40176;SDS011;31511;46.176;9.874;2023-07-24T04:43:44;21.05;;;12.98;;
40176;SDS011;31511;46.176;9.874;2023-07-24T04:46:29;18.08;;;12.57;;
40176;SDS011;31511;46.176;9.874;2023-07-24T04:49:13;18.63;;;13.50;;
40176;SDS011;31511;46.176;9.874;2023-07-24T04:51:58;21.35;;;12.48;;
40176;SDS011;31511;46.176;9.874;2023-07-24T04:54:43;16.48;;;13.00;;
40176;SDS011;31511;46.176;9.874;2023-07-24T04:57:28;20.95;;;13.05;;
40176;SDS011;31511;46.176;9.874;2023-07-24T05:00:12;18.27;;;12.02;;
40176;SDS011;31511;46.176;9.874;2023-07-24T05:02:57;18.13;;;12.38;;
40176;SDS011;31511;46.176;9.874;2023-07-24T05:05:42;20.45;;;11.40;;
40176;SDS011;31511;46.176;9.874;2023-07-24T05:08:26;18.33;;;11.95;;
40176;SDS011;31511;46.176;9.874;2023-07-24T05:11:11;19.65;;;11.95;;
40176;SDS011;31511;46.176;9.874;2023-07-24T05:13:55;18.45;;;13.73;;
40176;SDS011;31511;46.176;9.874;2023-07-24T05:16:40;15.40;;;11.75;;
40176;SDS011;31511;46.176;9.874;2023-07-24T05:19:24;22.25;;;13.50;;
40176;SDS011;31511;46.176;9.874;2023-07-24T05:22:09;19.88;;;14.20;;
40176;SDS011;31511;46.176;9.874;2023-07-24T05:24:53;20.75;;;12.85;;
40176;SDS011;31511;46.176;9.874;2023-07-24T05:27:38;16.75;;;12.38;;
40176;SDS011;31511;46.176;9.874;2023-07-24T05:30:22;19.48;;;12.32;;
40176;SDS011;31511;46.176;9.874;2023-07-24T05:33:07;21.17;;;12.48;;
40176;SDS011;31511;46.176;9.874;2023-07-24T05:35:56;20.15;;;12.18;;
40176;SDS011;31511;46.176;9.874;2023-07-24T05:38:41;20.40;;;13.75;;
40176;SDS011;31511;46.176;9.874;2023-07-24T05:41:26;20.98;;;13.60;;
40176;SDS011;31511;46.176;9.874;2023-07-24T05:44:10;22.50;;;13.40;;
40176;SDS011;31511;46.176;9.874;2023-07-24T05:46:55;19.65;;;13.45;;
40176;SDS011;31511;46.176;9.874;2023-07-24T05:49:39;23.27;;;13.32;;
40176;SDS011;31511;46.176;9.874;2023-07-24T05:52:24;19.35;;;12.32;;
40176;SDS011;31511;46.176;9.874;2023-07-24T05:55:09;22.10;;;13.65;;
40176;SDS011;31511;46.176;9.874;2023-07-24T05:57:53;22.80;;;13.27;;
40176;SDS011;31511;46.176;9.874;2023-07-24T06:00:38;20.52;;;12.07;;
40176;SDS011;31511;46.176;9.874;2023-07-24T06:03:23;24.88;;;13.27;;
40176;SDS011;31511;46.176;9.874;2023-07-24T06:06:08;21.45;;;10.65;;
40176;SDS011;31511;46.176;9.874;2023-07-24T06:08:53;19.88;;;13.05;;
40176;SDS011;31511;46.176;9.874;2023-07-24T06:11:37;17.25;;;12.20;;
40176;SDS011;31511;46.176;9.874;2023-07-24T06:14:22;18.60;;;12.77;;
40176;SDS011;31511;46.176;9.874;2023-07-24T06:17:07;20.25;;;12.73;;
40176;SDS011;31511;46.176;9.874;2023-07-24T06:19:52;19.38;;;12.35;;
40176;SDS011;31511;46.176;9.874;2023-07-24T06:22:36;21.35;;;14.07;;
40176;SDS011;31511;46.176;9.874;2023-07-24T06:25:21;18.90;;;12.82;;
40176;SDS011;31511;46.176;9.874;2023-07-24T06:28:06;17.63;;;11.13;;
40176;SDS011;31511;46.176;9.874;2023-07-24T06:30:53;18.00;;;12.00;;
40176;SDS011;31511;46.176;9.874;2023-07-24T06:33:38;15.70;;;11.00;;
40176;SDS011;31511;46.176;9.874;2023-07-24T06:36:23;16.65;;;10.65;;
40176;SDS011;31511;46.176;9.874;2023-07-24T06:39:07;12.88;;;7.43;;
40176;SDS011;31511;46.176;9.874;2023-07-24T06:41:52;13.73;;;6.53;;
40176;SDS011;31511;46.176;9.874;2023-07-24T06:44:37;12.43;;;7.47;;
40176;SDS011;31511;46.176;9.874;2023-07-24T06:47:21;12.00;;;7.15;;
40176;SDS011;31511;46.176;9.874;2023-07-24T06:50:06;12.50;;;7.57;;
40176;SDS011;31511;46.176;9.874;2023-07-24T06:52:51;11.75;;;8.05;;
40176;SDS011;31511;46.176;9.874;2023-07-24T06:55:37;10.93;;;8.75;;
40176;SDS011;31511;46.176;9.874;2023-07-24T06:58:21;12.90;;;8.88;;
40176;SDS011;31511;46.176;9.874;2023-07-24T07:01:06;19.90;;;12.13;;
40176;SDS011;31511;46.176;9.874;2023-07-24T07:03:51;23.15;;;12.75;;
40176;SDS011;31511;46.176;9.874;2023-07-24T07:06:36;22.10;;;13.57;;
40176;SDS011;31511;46.176;9.874;2023-07-24T07:09:20;18.10;;;13.10;;
40176;SDS011;31511;46.176;9.874;2023-07-24T07:12:05;21.52;;;13.52;;
40176;SDS011;31511;46.176;9.874;2023-07-24T07:14:50;19.55;;;13.95;;
40176;SDS011;31511;46.176;9.874;2023-07-24T07:17:34;24.27;;;13.63;;
40176;SDS011;31511;46.176;9.874;2023-07-24T07:20:19;21.85;;;13.48;;
40176;SDS011;31511;46.176;9.874;2023-07-24T07:23:04;19.75;;;13.32;;
40176;SDS011;31511;46.176;9.874;2023-07-24T07:25:48;25.63;;;13.32;;
40176;SDS011;31511;46.176;9.874;2023-07-24T07:28:34;18.88;;;12.88;;
40176;SDS011;31511;46.176;9.874;2023-07-24T07:31:19;23.60;;;13.65;;
40176;SDS011;31511;46.176;9.874;2023-07-24T07:34:03;19.40;;;14.05;;
40176;SDS011;31511;46.176;9.874;2023-07-24T07:36:48;20.40;;;13.63;;
40176;SDS011;31511;46.176;9.874;2023-07-24T07:39:33;21.75;;;13.18;;
40176;SDS011;31511;46.176;9.874;2023-07-24T07:42:17;21.83;;;13.77;;
40176;SDS011;31511;46.176;9.874;2023-07-24T07:45:02;21.17;;;13.55;;
40176;SDS011;31511;46.176;9.874;2023-07-24T07:47:46;20.00;;;13.65;;
40176;SDS011;31511;46.176;9.874;2023-07-24T07:50:31;25.23;;;15.93;;
40176;SDS011;31511;46.176;9.874;2023-07-24T07:53:16;22.83;;;14.25;;
40176;SDS011;31511;46.176;9.874;2023-07-24T07:56:00;23.85;;;14.48;;
40176;SDS011;31511;46.176;9.874;2023-07-24T07:58:45;24.58;;;14.45;;
40176;SDS011;31511;46.176;9.874;2023-07-24T08:01:30;22.33;;;14.43;;
40176;SDS011;31511;46.176;9.874;2023-07-24T08:04:16;21.73;;;14.52;;
40176;SDS011;31511;46.176;9.874;2023-07-24T08:07:02;24.98;;;15.07;;
40176;SDS011;31511;46.176;9.874;2023-07-24T08:09:46;20.77;;;14.82;;
40176;SDS011;31511;46.176;9.874;2023-07-24T08:12:32;21.25;;;13.77;;
40176;SDS011;31511;46.176;9.874;2023-07-24T08:15:16;24.40;;;14.68;;
40176;SDS011;31511;46.176;9.874;2023-07-24T08:18:01;20.48;;;13.05;;
40176;SDS011;31511;46.176;9.874;2023-07-24T08:20:46;18.95;;;14.25;;
40176;SDS011;31511;46.176;9.874;2023-07-24T08:23:31;17.08;;;13.00;;
40176;SDS011;31511;46.176;9.874;2023-07-24T08:26:17;21.55;;;14.30;;
40176;SDS011;31511;46.176;9.874;2023-07-24T08:29:01;17.63;;;11.90;;
40176;SDS011;31511;46.176;9.874;2023-07-24T08:31:47;22.63;;;14.50;;
40176;SDS011;31511;46.176;9.874;2023-07-24T08:34:31;22.73;;;13.90;;
40176;SDS011;31511;46.176;9.874;2023-07-24T08:37:16;21.73;;;14.10;;
40176;SDS011;31511;46.176;9.874;2023-07-24T08:40:00;21.83;;;15.27;;
40176;SDS011;31511;46.176;9.874;2023-07-24T08:42:45;24.10;;;14.88;;
40176;SDS011;31511;46.176;9.874;2023-07-24T08:45:33;20.05;;;14.30;;
40176;SDS011;31511;46.176;9.874;2023-07-24T08:48:18;21.85;;;15.77;;
40176;SDS011;31511;46.176;9.874;2023-07-24T08:51:03;28.58;;;14.27;;
40176;SDS011;31511;46.176;9.874;2023-07-24T08:53:48;21.55;;;15.27;;
40176;SDS011;31511;46.176;9.874;2023-07-24T08:56:33;23.05;;;14.63;;
40176;SDS011;31511;46.176;9.874;2023-07-24T08:59:18;20.48;;;13.35;;
40176;SDS011;31511;46.176;9.874;2023-07-24T09:02:02;19.60;;;13.70;;
40176;SDS011;31511;46.176;9.874;2023-07-24T09:04:47;18.40;;;12.18;;
40176;SDS011;31511;46.176;9.874;2023-07-24T09:07:31;20.00;;;14.50;;
40176;SDS011;31511;46.176;9.874;2023-07-24T09:10:16;18.13;;;14.13;;
40176;SDS011;31511;46.176;9.874;2023-07-24T09:13:00;24.30;;;16.05;;
40176;SDS011;31511;46.176;9.874;2023-07-24T09:15:47;22.23;;;15.15;;
40176;SDS011;31511;46.176;9.874;2023-07-24T09:18:39;21.52;;;14.43;;
40176;SDS011;31511;46.176;9.874;2023-07-24T09:21:31;24.25;;;15.85;;
40176;SDS011;31511;46.176;9.874;2023-07-24T09:24:16;19.20;;;14.55;;
40176;SDS011;31511;46.176;9.874;2023-07-24T09:27:00;22.42;;;15.82;;
40176;SDS011;31511;46.176;9.874;2023-07-24T09:29:48;20.85;;;14.43;;
40176;SDS011;31511;46.176;9.874;2023-07-24T09:32:33;26.30;;;14.15;;
40176;SDS011;31511;46.176;9.874;2023-07-24T09:35:17;32.05;;;16.25;;
40176;SDS011;31511;46.176;9.874;2023-07-24T09:38:09;23.63;;;15.07;;
40176;SDS011;31511;46.176;9.874;2023-07-24T09:40:55;23.67;;;13.95;;
40176;SDS011;31511;46.176;9.874;2023-07-24T09:43:41;21.05;;;15.02;;
40176;SDS011;31511;46.176;9.874;2023-07-24T09:46:26;24.60;;;16.45;;
40176;SDS011;31511;46.176;9.874;2023-07-24T09:49:15;21.00;;;14.55;;
40176;SDS011;31511;46.176;9.874;2023-07-24T09:51:59;24.20;;;14.73;;
40176;SDS011;31511;46.176;9.874;2023-07-24T09:57:48;21.85;;;13.45;;
40176;SDS011;31511;46.176;9.874;2023-07-24T10:00:33;19.15;;;13.57;;
40176;SDS011;31511;46.176;9.874;2023-07-24T10:03:18;19.95;;;12.90;;
40176;SDS011;31511;46.176;9.874;2023-07-24T10:06:04;24.02;;;13.85;;
40176;SDS011;31511;46.176;9.874;2023-07-24T10:08:48;19.40;;;14.38;;
40176;SDS011;31511;46.176;9.874;2023-07-24T10:11:33;20.45;;;14.77;;
40176;SDS011;31511;46.176;9.874;2023-07-24T10:14:18;22.33;;;16.00;;
40176;SDS011;31511;46.176;9.874;2023-07-24T10:17:03;23.40;;;17.08;;
40176;SDS011;31511;46.176;9.874;2023-07-24T10:19:47;22.77;;;15.82;;
40176;SDS011;31511;46.176;9.874;2023-07-24T10:22:32;23.88;;;16.45;;
40176;SDS011;31511;46.176;9.874;2023-07-24T10:25:16;25.85;;;16.80;;
40176;SDS011;31511;46.176;9.874;2023-07-24T10:28:05;25.35;;;16.58;;
40176;SDS011;31511;46.176;9.874;2023-07-24T10:30:54;23.73;;;17.90;;
40176;SDS011;31511;46.176;9.874;2023-07-24T10:33:44;24.88;;;17.73;;
40176;SDS011;31511;46.176;9.874;2023-07-24T10:36:32;26.27;;;17.83;;
40176;SDS011;31511;46.176;9.874;2023-07-24T10:39:17;20.67;;;15.98;;
40176;SDS011;31511;46.176;9.874;2023-07-24T10:42:10;22.48;;;16.88;;
40176;SDS011;31511;46.176;9.874;2023-07-24T10:45:04;23.02;;;18.17;;
40176;SDS011;31511;46.176;9.874;2023-07-24T10:47:49;26.45;;;19.88;;
40176;SDS011;31511;46.176;9.874;2023-07-24T10:50:41;26.83;;;19.63;;
40176;SDS011;31511;46.176;9.874;2023-07-24T10:53:26;28.38;;;19.15;;
40176;SDS011;31511;46.176;9.874;2023-07-24T10:56:12;25.20;;;19.73;;
40176;SDS011;31511;46.176;9.874;2023-07-24T10:59:01;21.83;;;17.95;;
40176;SDS011;31511;46.176;9.874;2023-07-24T11:01:46;24.08;;;17.33;;
40176;SDS011;31511;46.176;9.874;2023-07-24T11:04:31;23.98;;;17.13;;
40176;SDS011;31511;46.176;9.874;2023-07-24T11:07:17;25.63;;;18.65;;
40176;SDS011;31511;46.176;9.874;2023-07-24T11:10:01;24.08;;;17.42;;
40176;SDS011;31511;46.176;9.874;2023-07-24T11:12:46;26.88;;;16.92;;
40176;SDS011;31511;46.176;9.874;2023-07-24T11:15:31;23.17;;;17.70;;
40176;SDS011;31511;46.176;9.874;2023-07-24T11:18:15;26.05;;;17.75;;
40176;SDS011;31511;46.176;9.874;2023-07-24T11:21:00;22.48;;;17.40;;
40176;SDS011;31511;46.176;9.874;2023-07-24T11:23:46;26.15;;;18.70;;
40176;SDS011;31511;46.176;9.874;2023-07-24T11:26:31;25.00;;;18.67;;
40176;SDS011;31511;46.176;9.874;2023-07-24T11:29:15;22.63;;;17.52;;
40176;SDS011;31511;46.176;9.874;2023-07-24T11:32:00;25.42;;;18.15;;
40176;SDS011;31511;46.176;9.874;2023-07-24T11:34:45;23.65;;;19.23;;
40176;SDS011;31511;46.176;9.874;2023-07-24T11:37:30;25.05;;;16.90;;
40176;SDS011;31511;46.176;9.874;2023-07-24T11:40:15;21.02;;;16.52;;
40176;SDS011;31511;46.176;9.874;2023-07-24T11:43:00;25.40;;;19.52;;
40176;SDS011;31511;46.176;9.874;2023-07-24T11:45:44;30.38;;;22.33;;
40176;SDS011;31511;46.176;9.874;2023-07-24T11:48:32;30.25;;;22.30;;
40176;SDS011;31511;46.176;9.874;2023-07-24T11:51:17;25.40;;;17.77;;
40176;SDS011;31511;46.176;9.874;2023-07-24T11:54:08;27.13;;;18.35;;
40176;SDS011;31511;46.176;9.874;2023-07-24T11:56:54;24.90;;;18.73;;
40176;SDS011;31511;46.176;9.874;2023-07-24T11:59:39;25.00;;;17.63;;
40176;SDS011;31511;46.176;9.874;2023-07-24T12:02:27;24.38;;;17.95;;
40176;SDS011;31511;46.176;9.874;2023-07-24T12:05:12;23.67;;;19.27;;
40176;SDS011;31511;46.176;9.874;2023-07-24T12:07:56;30.38;;;19.98;;
40176;SDS011;31511;46.176;9.874;2023-07-24T12:10:42;25.25;;;16.08;;
40176;SDS011;31511;46.176;9.874;2023-07-24T12:13:26;32.42;;;19.33;;
40176;SDS011;31511;46.176;9.874;2023-07-24T12:16:12;27.58;;;20.95;;
40176;SDS011;31511;46.176;9.874;2023-07-24T12:18:56;27.20;;;21.40;;
40176;SDS011;31511;46.176;9.874;2023-07-24T12:21:41;24.75;;;17.35;;
40176;SDS011;31511;46.176;9.874;2023-07-24T12:24:25;29.48;;;20.77;;
40176;SDS011;31511;46.176;9.874;2023-07-24T12:27:10;26.00;;;18.42;;
40176;SDS011;31511;46.176;9.874;2023-07-24T12:29:54;25.73;;;16.02;;
40176;SDS011;31511;46.176;9.874;2023-07-24T12:32:39;20.30;;;13.65;;
40176;SDS011;31511;46.176;9.874;2023-07-24T12:35:23;20.55;;;14.18;;
40176;SDS011;31511;46.176;9.874;2023-07-24T12:38:08;19.95;;;15.93;;
40176;SDS011;31511;46.176;9.874;2023-07-24T12:40:52;22.58;;;14.88;;
40176;SDS011;31511;46.176;9.874;2023-07-24T12:43:37;22.77;;;14.35;;
40176;SDS011;31511;46.176;9.874;2023-07-24T12:46:22;22.08;;;16.48;;
40176;SDS011;31511;46.176;9.874;2023-07-24T12:49:07;20.13;;;15.52;;
40176;SDS011;31511;46.176;9.874;2023-07-24T12:51:51;23.17;;;16.98;;
40176;SDS011;31511;46.176;9.874;2023-07-24T12:54:36;23.35;;;17.58;;
40176;SDS011;31511;46.176;9.874;2023-07-24T12:57:21;25.45;;;18.80;;
40176;SDS011;31511;46.176;9.874;2023-07-24T13:00:05;22.83;;;18.15;;
40176;SDS011;31511;46.176;9.874;2023-07-24T13:02:50;24.00;;;16.17;;
40176;SDS011;31511;46.176;9.874;2023-07-24T13:05:35;24.80;;;16.90;;
40176;SDS011;31511;46.176;9.874;2023-07-24T13:08:19;26.42;;;16.75;;
40176;SDS011;31511;46.176;9.874;2023-07-24T13:11:05;20.52;;;16.67;;
40176;SDS011;31511;46.176;9.874;2023-07-24T13:13:50;23.70;;;16.50;;
40176;SDS011;31511;46.176;9.874;2023-07-24T13:16:34;18.92;;;14.15;;
40176;SDS011;31511;46.176;9.874;2023-07-24T13:19:19;19.15;;;15.27;;
40176;SDS011;31511;46.176;9.874;2023-07-24T13:22:04;25.42;;;17.30;;
40176;SDS011;31511;46.176;9.874;2023-07-24T13:24:49;25.33;;;15.77;;
40176;SDS011;31511;46.176;9.874;2023-07-24T13:27:33;23.30;;;17.77;;
40176;SDS011;31511;46.176;9.874;2023-07-24T13:30:18;25.02;;;17.98;;
40176;SDS011;31511;46.176;9.874;2023-07-24T13:33:02;25.05;;;19.08;;
40176;SDS011;31511;46.176;9.874;2023-07-24T13:35:47;21.27;;;18.33;;
40176;SDS011;31511;46.176;9.874;2023-07-24T13:38:31;27.08;;;18.92;;
40176;SDS011;31511;46.176;9.874;2023-07-24T13:41:16;19.63;;;16.08;;
40176;SDS011;31511;46.176;9.874;2023-07-24T13:44:01;23.23;;;18.27;;
40176;SDS011;31511;46.176;9.874;2023-07-24T13:46:45;23.52;;;17.30;;
40176;SDS011;31511;46.176;9.874;2023-07-24T13:49:30;23.15;;;17.95;;
40176;SDS011;31511;46.176;9.874;2023-07-24T13:52:14;18.63;;;13.90;;
40176;SDS011;31511;46.176;9.874;2023-07-24T13:54:59;21.33;;;14.80;;
40176;SDS011;31511;46.176;9.874;2023-07-24T13:57:44;18.00;;;13.63;;
40176;SDS011;31511;46.176;9.874;2023-07-24T14:00:28;19.08;;;13.80;;
40176;SDS011;31511;46.176;9.874;2023-07-24T14:03:13;18.48;;;12.05;;
40176;SDS011;31511;46.176;9.874;2023-07-24T14:05:58;16.02;;;13.55;;
40176;SDS011;31511;46.176;9.874;2023-07-24T14:08:42;18.98;;;14.45;;
40176;SDS011;31511;46.176;9.874;2023-07-24T14:11:27;22.95;;;14.75;;
40176;SDS011;31511;46.176;9.874;2023-07-24T14:14:12;22.92;;;16.23;;
40176;SDS011;31511;46.176;9.874;2023-07-24T14:16:57;21.80;;;15.38;;
40176;SDS011;31511;46.176;9.874;2023-07-24T14:19:42;21.50;;;14.70;;
40176;SDS011;31511;46.176;9.874;2023-07-24T14:22:27;17.95;;;14.55;;
40176;SDS011;31511;46.176;9.874;2023-07-24T14:25:11;16.40;;;11.30;;
40176;SDS011;31511;46.176;9.874;2023-07-24T14:27:56;15.98;;;10.55;;
40176;SDS011;31511;46.176;9.874;2023-07-24T14:30:40;16.02;;;11.43;;
40176;SDS011;31511;46.176;9.874;2023-07-24T14:33:25;13.85;;;9.77;;
40176;SDS011;31511;46.176;9.874;2023-07-24T14:36:09;19.23;;;12.63;;
40176;SDS011;31511;46.176;9.874;2023-07-24T14:38:54;20.33;;;12.68;;
40176;SDS011;31511;46.176;9.874;2023-07-24T14:41:38;18.75;;;13.55;;
40176;SDS011;31511;46.176;9.874;2023-07-24T14:44:23;20.33;;;15.32;;
40176;SDS011;31511;46.176;9.874;2023-07-24T14:47:07;21.50;;;14.98;;
40176;SDS011;31511;46.176;9.874;2023-07-24T14:49:52;19.70;;;13.05;;
40176;SDS011;31511;46.176;9.874;2023-07-24T14:52:36;19.38;;;14.23;;
40176;SDS011;31511;46.176;9.874;2023-07-24T14:55:21;25.25;;;15.55;;
40176;SDS011;31511;46.176;9.874;2023-07-24T14:58:06;22.80;;;15.93;;
40176;SDS011;31511;46.176;9.874;2023-07-24T15:00:50;22.83;;;15.52;;
40176;SDS011;31511;46.176;9.874;2023-07-24T15:03:35;20.77;;;14.98;;
40176;SDS011;31511;46.176;9.874;2023-07-24T15:06:19;18.35;;;13.45;;
40176;SDS011;31511;46.176;9.874;2023-07-24T15:09:04;22.80;;;15.00;;
40176;SDS011;31511;46.176;9.874;2023-07-24T15:11:48;20.55;;;12.25;;
40176;SDS011;31511;46.176;9.874;2023-07-24T15:14:33;20.90;;;13.27;;
40176;SDS011;31511;46.176;9.874;2023-07-24T15:17:17;23.75;;;13.65;;
40176;SDS011;31511;46.176;9.874;2023-07-24T15:20:03;17.35;;;13.65;;
40176;SDS011;31511;46.176;9.874;2023-07-24T15:22:48;17.02;;;13.73;;
40176;SDS011;31511;46.176;9.874;2023-07-24T15:25:33;20.45;;;15.48;;
40176;SDS011;31511;46.176;9.874;2023-07-24T15:28:17;23.08;;;14.93;;
40176;SDS011;31511;46.176;9.874;2023-07-24T15:31:02;19.27;;;14.50;;
40176;SDS011;31511;46.176;9.874;2023-07-24T15:33:47;21.45;;;14.95;;
40176;SDS011;31511;46.176;9.874;2023-07-24T15:36:32;17.30;;;11.57;;
40176;SDS011;31511;46.176;9.874;2023-07-24T15:39:16;20.73;;;13.25;;
40176;SDS011;31511;46.176;9.874;2023-07-24T15:42:01;16.73;;;12.23;;
40176;SDS011;31511;46.176;9.874;2023-07-24T15:44:45;20.45;;;13.23;;
40176;SDS011;31511;46.176;9.874;2023-07-24T15:47:30;21.33;;;14.23;;
40176;SDS011;31511;46.176;9.874;2023-07-24T15:50:15;19.10;;;13.38;;
40176;SDS011;31511;46.176;9.874;2023-07-24T15:52:59;18.90;;;12.48;;
40176;SDS011;31511;46.176;9.874;2023-07-24T15:55:44;19.98;;;12.40;;
40176;SDS011;31511;46.176;9.874;2023-07-24T15:58:28;22.63;;;13.98;;
40176;SDS011;31511;46.176;9.874;2023-07-24T16:01:13;16.30;;;11.25;;
40176;SDS011;31511;46.176;9.874;2023-07-24T16:03:57;19.92;;;12.50;;
40176;SDS011;31511;46.176;9.874;2023-07-24T16:06:42;14.20;;;10.68;;
40176;SDS011;31511;46.176;9.874;2023-07-24T16:09:27;18.90;;;13.07;;